sensor_id;sensor_type;location;lat;lon;timestamp;pressure;altitude;pressure_sealevel;temperature;humidity
55914;BME280;58179;48.776;9.124;2023-03-21T00:01:24;97589.56;;;8.51;100.00
55914;BME280;58179;48.776;9.124;2023-03-21T00:03:50;97586.34;;;8.49;100.00
55914;BME280;58179;48.776;9.124;2023-03-21T00:06:16;97586.59;;;8.48;100.00
55914;BME280;58179;48.776;9.124;2023-03-21T00:08:42;97583.97;;;8.48;100.00
55914;BME280;58179;48.776;9.124;2023-03-21T00:11:10;97578.81;;;8.41;100.00
55914;BME280;58179;48.776;9.124;2023-03-21T00:13:38;97587.28;;;8.43;100.00
55914;BME280;58179;48.776;9.124;2023-03-21T00:16:10;97585.22;;;8.45;100.00
55914;BME280;58179;48.776;9.124;2023-03-21T00:18:40;97582.00;;;8.43;100.00
55914;BME280;58179;48.776;9.124;2023-03-21T00:21:09;97582.34;;;8.47;100.00
55914;BME280;58179;48.776;9.124;2023-03-21T00:23:36;97578.69;;;8.48;100.00
55914;BME280;58179;48.776;9.124;2023-03-21T00:26:01;97579.50;;;8.48;100.00
55914;BME280;58179;48.776;9.124;2023-03-21T00:28:28;97579.22;;;8.50;100.00
55914;BME280;58179;48.776;9.124;2023-03-21T00:30:57;97568.13;;;8.48;100.00
55914;BME280;58179;48.776;9.124;2023-03-21T00:33:27;97562.06;;;8.47;100.00
55914;BME280;58179;48.776;9.124;2023-03-21T00:35:53;97565.38;;;8.43;100.00
55914;BME280;58179;48.776;9.124;2023-03-21T00:38:20;97564.25;;;8.39;100.00
55914;BME280;58179;48.776;9.124;2023-03-21T00:40:46;97564.03;;;8.40;100.00
55914;BME280;58179;48.776;9.124;2023-03-21T00:43:12;97554.50;;;8.39;100.00
55914;BME280;58179;48.776;9.124;2023-03-21T00:45:49;97550.72;;;8.35;100.00
55914;BME280;58179;48.776;9.124;2023-03-21T00:48:16;97547.75;;;8.32;100.00
55914;BME280;58179;48.776;9.124;2023-03-21T00:50:44;97546.94;;;8.31;100.00
55914;BME280;58179;48.776;9.124;2023-03-21T00:53:12;97550.38;;;8.32;100.00
55914;BME280;58179;48.776;9.124;2023-03-21T00:55:38;97533.75;;;8.31;100.00
55914;BME280;58179;48.776;9.124;2023-03-21T00:58:05;97541.06;;;8.29;100.00
55914;BME280;58179;48.776;9.124;2023-03-21T01:00:31;97539.22;;;8.30;100.00
55914;BME280;58179;48.776;9.124;2023-03-21T01:02:58;97540.03;;;8.30;100.00
55914;BME280;58179;48.776;9.124;2023-03-21T01:05:32;97538.81;;;8.33;100.00
55914;BME280;58179;48.776;9.124;2023-03-21T01:08:20;97536.97;;;8.33;100.00
55914;BME280;58179;48.776;9.124;2023-03-21T01:10:48;97533.53;;;8.33;100.00
55914;BME280;58179;48.776;9.124;2023-03-21T01:13:19;97541.44;;;8.33;100.00
55914;BME280;58179;48.776;9.124;2023-03-21T01:15:48;97535.38;;;8.32;100.00
55914;BME280;58179;48.776;9.124;2023-03-21T01:18:17;97538.81;;;8.33;100.00
55914;BME280;58179;48.776;9.124;2023-03-21T01:20:43;97529.16;;;8.27;100.00
55914;BME280;58179;48.776;9.124;2023-03-21T01:23:12;97530.31;;;8.19;100.00
55914;BME280;58179;48.776;9.124;2023-03-21T01:25:39;97534.22;;;8.16;100.00
55914;BME280;58179;48.776;9.124;2023-03-21T01:28:06;97527.34;;;8.15;100.00
55914;BME280;58179;48.776;9.124;2023-03-21T01:30:32;97534.88;;;8.12;100.00
55914;BME280;58179;48.776;9.124;2023-03-21T01:32:58;97532.72;;;8.09;100.00
55914;BME280;58179;48.776;9.124;2023-03-21T01:35:24;97526.06;;;8.06;100.00
55914;BME280;58179;48.776;9.124;2023-03-21T01:37:50;97527.47;;;8.09;100.00
55914;BME280;58179;48.776;9.124;2023-03-21T01:40:20;97528.03;;;8.11;100.00
55914;BME280;58179;48.776;9.124;2023-03-21T01:42:48;97530.91;;;8.09;100.00
55914;BME280;58179;48.776;9.124;2023-03-21T01:46:16;97519.56;;;8.09;100.00
55914;BME280;58179;48.776;9.124;2023-03-21T01:48:47;97519.56;;;8.09;100.00
55914;BME280;58179;48.776;9.124;2023-03-21T01:51:15;97524.03;;;8.08;100.00
55914;BME280;58179;48.776;9.124;2023-03-21T01:53:41;97521.59;;;8.07;100.00
55914;BME280;58179;48.776;9.124;2023-03-21T01:56:12;97518.41;;;8.05;100.00
55914;BME280;58179;48.776;9.124;2023-03-21T01:58:43;97513.38;;;8.03;100.00
55914;BME280;58179;48.776;9.124;2023-03-21T02:01:10;97513.13;;;8.05;100.00
55914;BME280;58179;48.776;9.124;2023-03-21T02:03:38;97511.53;;;8.04;100.00
55914;BME280;58179;48.776;9.124;2023-03-21T02:06:22;97512.00;;;8.01;100.00
55914;BME280;58179;48.776;9.124;2023-03-21T02:08:51;97506.72;;;8.01;100.00
55914;BME280;58179;48.776;9.124;2023-03-21T02:11:18;97508.56;;;8.00;100.00
55914;BME280;58179;48.776;9.124;2023-03-21T02:13:45;97503.72;;;7.97;100.00
55914;BME280;58179;48.776;9.124;2023-03-21T02:16:17;97500.78;;;7.94;100.00
55914;BME280;58179;48.776;9.124;2023-03-21T02:18:53;97500.56;;;7.95;100.00
55914;BME280;58179;48.776;9.124;2023-03-21T02:25:06;97506.03;;;7.94;100.00
55914;BME280;58179;48.776;9.124;2023-03-21T02:27:46;97498.03;;;7.89;100.00
55914;BME280;58179;48.776;9.124;2023-03-21T02:30:41;97498.50;;;7.86;100.00
55914;BME280;58179;48.776;9.124;2023-03-21T02:36:57;97488.53;;;7.88;100.00
55914;BME280;58179;48.776;9.124;2023-03-21T02:39:37;97490.47;;;7.92;100.00
55914;BME280;58179;48.776;9.124;2023-03-21T02:42:09;97485.19;;;7.92;100.00
55914;BME280;58179;48.776;9.124;2023-03-21T02:44:42;97489.66;;;7.92;100.00
55914;BME280;58179;48.776;9.124;2023-03-21T02:47:13;97490.47;;;7.92;100.00
55914;BME280;58179;48.776;9.124;2023-03-21T02:49:46;97480.84;;;7.86;100.00
55914;BME280;58179;48.776;9.124;2023-03-21T02:52:20;97482.31;;;7.82;100.00
55914;BME280;58179;48.776;9.124;2023-03-21T02:54:48;97476.94;;;7.77;100.00
55914;BME280;58179;48.776;9.124;2023-03-21T02:57:17;97482.69;;;7.74;100.00
55914;BME280;58179;48.776;9.124;2023-03-21T02:59:44;97481.91;;;7.73;100.00
55914;BME280;58179;48.776;9.124;2023-03-21T03:02:14;97477.66;;;7.72;100.00
55914;BME280;58179;48.776;9.124;2023-03-21T03:04:41;97482.69;;;7.74;100.00
55914;BME280;58179;48.776;9.124;2023-03-21T03:07:35;97476.16;;;7.76;100.00
55914;BME280;58179;48.776;9.124;2023-03-21T03:10:30;97472.25;;;7.79;100.00
55914;BME280;58179;48.776;9.124;2023-03-21T03:13:14;97477.53;;;7.79;100.00
55914;BME280;58179;48.776;9.124;2023-03-21T03:15:53;97482.22;;;7.77;100.00
55914;BME280;58179;48.776;9.124;2023-03-21T03:18:30;97471.91;;;7.75;100.00
55914;BME280;58179;48.776;9.124;2023-03-21T03:21:06;97477.97;;;7.76;100.00
55914;BME280;58179;48.776;9.124;2023-03-21T03:23:42;97474.31;;;7.77;100.00
55914;BME280;58179;48.776;9.124;2023-03-21T03:26:14;97475.13;;;7.77;100.00
55914;BME280;58179;48.776;9.124;2023-03-21T03:28:45;97477.19;;;7.75;100.00
55914;BME280;58179;48.776;9.124;2023-03-21T03:31:17;97464.00;;;7.75;100.00
55914;BME280;58179;48.776;9.124;2023-03-21T03:33:48;97474.09;;;7.78;100.00
55914;BME280;58179;48.776;9.124;2023-03-21T03:36:17;97469.41;;;7.81;100.00
55914;BME280;58179;48.776;9.124;2023-03-21T03:38:48;97470.53;;;7.85;100.00
55914;BME280;58179;48.776;9.124;2023-03-21T03:41:20;97464.44;;;7.84;100.00
55914;BME280;58179;48.776;9.124;2023-03-21T03:43:52;97470.53;;;7.85;100.00
55914;BME280;58179;48.776;9.124;2023-03-21T03:46:26;97467.66;;;7.86;100.00
55914;BME280;58179;48.776;9.124;2023-03-21T03:48:56;97465.34;;;7.90;100.00
55914;BME280;58179;48.776;9.124;2023-03-21T03:51:26;97462.72;;;7.90;100.00
55914;BME280;58179;48.776;9.124;2023-03-21T03:53:59;97455.88;;;7.89;100.00
55914;BME280;58179;48.776;9.124;2023-03-21T03:56:27;97453.47;;;7.87;100.00
55914;BME280;58179;48.776;9.124;2023-03-21T03:58:54;97451.84;;;7.86;100.00
55914;BME280;58179;48.776;9.124;2023-03-21T04:01:20;97455.19;;;7.82;100.00
55914;BME280;58179;48.776;9.124;2023-03-21T04:03:47;97458.06;;;7.80;100.00
55914;BME280;58179;48.776;9.124;2023-03-21T04:06:15;97453.72;;;7.74;100.00
55914;BME280;58179;48.776;9.124;2023-03-21T04:08:41;97454.97;;;7.71;100.00
55914;BME280;58179;48.776;9.124;2023-03-21T04:11:09;97456.44;;;7.67;100.00
55914;BME280;58179;48.776;9.124;2023-03-21T04:13:35;97451.66;;;7.64;100.00
55914;BME280;58179;48.776;9.124;2023-03-21T04:16:01;97454.75;;;7.61;100.00
55914;BME280;58179;48.776;9.124;2023-03-21T04:18:28;97457.03;;;7.58;100.00
55914;BME280;58179;48.776;9.124;2023-03-21T04:20:54;97454.63;;;7.56;100.00
55914;BME280;58179;48.776;9.124;2023-03-21T04:23:20;97448.47;;;7.51;100.00
55914;BME280;58179;48.776;9.124;2023-03-21T04:25:46;97449.94;;;7.47;100.00
55914;BME280;58179;48.776;9.124;2023-03-21T04:28:13;97448.00;;;7.42;100.00
55914;BME280;58179;48.776;9.124;2023-03-21T04:30:39;97449.47;;;7.38;100.00
55914;BME280;58179;48.776;9.124;2023-03-21T04:33:06;97450.06;;;7.28;100.00
55914;BME280;58179;48.776;9.124;2023-03-21T04:35:32;97447.41;;;7.17;100.00
55914;BME280;58179;48.776;9.124;2023-03-21T04:37:58;97442.69;;;7.07;100.00
55914;BME280;58179;48.776;9.124;2023-03-21T04:40:24;97450.13;;;6.98;100.00
55914;BME280;58179;48.776;9.124;2023-03-21T04:42:50;97448.63;;;6.91;100.00
55914;BME280;58179;48.776;9.124;2023-03-21T04:45:18;97442.91;;;6.82;100.00
55914;BME280;58179;48.776;9.124;2023-03-21T04:47:44;97445.03;;;6.74;100.00
55914;BME280;58179;48.776;9.124;2023-03-21T04:50:11;97444.94;;;6.69;100.00
55914;BME280;58179;48.776;9.124;2023-03-21T04:52:37;97445.34;;;6.66;100.00
55914;BME280;58179;48.776;9.124;2023-03-21T04:55:05;97439.97;;;6.60;100.00
55914;BME280;58179;48.776;9.124;2023-03-21T04:57:35;97442.81;;;6.59;100.00
55914;BME280;58179;48.776;9.124;2023-03-21T05:00:02;97436.66;;;6.53;100.00
55914;BME280;58179;48.776;9.124;2023-03-21T05:02:31;97441.75;;;6.48;100.00
55914;BME280;58179;48.776;9.124;2023-03-21T05:04:57;97436.38;;;6.43;100.00
55914;BME280;58179;48.776;9.124;2023-03-21T05:07:23;97442.88;;;6.41;100.00
55914;BME280;58179;48.776;9.124;2023-03-21T05:09:51;97437.25;;;6.37;100.00
55914;BME280;58179;48.776;9.124;2023-03-21T05:12:17;97438.94;;;6.32;100.00
55914;BME280;58179;48.776;9.124;2023-03-21T05:14:44;97442.81;;;6.29;100.00
55914;BME280;58179;48.776;9.124;2023-03-21T05:17:10;97443.72;;;6.23;100.00
55914;BME280;58179;48.776;9.124;2023-03-21T05:19:41;97440.72;;;6.19;100.00
55914;BME280;58179;48.776;9.124;2023-03-21T05:22:10;97443.34;;;6.19;100.00
55914;BME280;58179;48.776;9.124;2023-03-21T05:24:37;97450.44;;;6.19;100.00
55914;BME280;58179;48.776;9.124;2023-03-21T05:27:06;97443.78;;;6.16;100.00
55914;BME280;58179;48.776;9.124;2023-03-21T05:29:33;97446.66;;;6.15;100.00
55914;BME280;58179;48.776;9.124;2023-03-21T05:32:00;97439.78;;;6.14;100.00
55914;BME280;58179;48.776;9.124;2023-03-21T05:34:26;97448.69;;;6.13;100.00
55914;BME280;58179;48.776;9.124;2023-03-21T05:36:54;97446.41;;;6.16;100.00
55914;BME280;58179;48.776;9.124;2023-03-21T05:39:20;97451.00;;;6.21;100.00
55914;BME280;58179;48.776;9.124;2023-03-21T05:41:46;97445.09;;;6.26;100.00
55914;BME280;58179;48.776;9.124;2023-03-21T05:44:12;97448.31;;;6.28;100.00
55914;BME280;58179;48.776;9.124;2023-03-21T05:46:39;97443.16;;;6.33;100.00
55914;BME280;58179;48.776;9.124;2023-03-21T05:49:05;97441.72;;;6.37;100.00
55914;BME280;58179;48.776;9.124;2023-03-21T05:51:31;97453.97;;;6.43;100.00
55914;BME280;58179;48.776;9.124;2023-03-21T05:53:58;97455.69;;;6.49;100.00
55914;BME280;58179;48.776;9.124;2023-03-21T05:56:24;97452.97;;;6.55;100.00
55914;BME280;58179;48.776;9.124;2023-03-21T05:58:50;97453.94;;;6.61;100.00
55914;BME280;58179;48.776;9.124;2023-03-21T06:01:16;97459.75;;;6.63;100.00
55914;BME280;58179;48.776;9.124;2023-03-21T06:03:42;97459.66;;;6.70;100.00
55914;BME280;58179;48.776;9.124;2023-03-21T06:06:08;97455.38;;;6.87;100.00
55914;BME280;58179;48.776;9.124;2023-03-21T06:08:34;97457.66;;;6.83;100.00
55914;BME280;58179;48.776;9.124;2023-03-21T06:11:02;97453.19;;;6.84;100.00
55914;BME280;58179;48.776;9.124;2023-03-21T06:13:28;97454.34;;;6.88;100.00
55914;BME280;58179;48.776;9.124;2023-03-21T06:15:55;97462.00;;;6.89;100.00
55914;BME280;58179;48.776;9.124;2023-03-21T06:18:21;97453.66;;;6.92;100.00
55914;BME280;58179;48.776;9.124;2023-03-21T06:20:47;97458.38;;;7.02;100.00
55914;BME280;58179;48.776;9.124;2023-03-21T06:23:13;97459.41;;;7.01;100.00
55914;BME280;58179;48.776;9.124;2023-03-21T06:25:40;97459.06;;;6.97;100.00
55914;BME280;58179;48.776;9.124;2023-03-21T06:28:07;97463.84;;;7.00;100.00
55914;BME280;58179;48.776;9.124;2023-03-21T06:30:33;97456.75;;;7.01;100.00
55914;BME280;58179;48.776;9.124;2023-03-21T06:32:59;97458.03;;;6.98;100.00
55914;BME280;58179;48.776;9.124;2023-03-21T06:35:25;97453.00;;;6.97;100.00
55914;BME280;58179;48.776;9.124;2023-03-21T06:37:51;97455.63;;;6.97;100.00
55914;BME280;58179;48.776;9.124;2023-03-21T06:40:17;97450.47;;;6.90;100.00
55914;BME280;58179;48.776;9.124;2023-03-21T06:42:43;97448.63;;;6.91;100.00
55914;BME280;58179;48.776;9.124;2023-03-21T06:45:10;97444.06;;;6.98;100.00
55914;BME280;58179;48.776;9.124;2023-03-21T06:47:36;97449.34;;;6.98;100.00
55914;BME280;58179;48.776;9.124;2023-03-21T06:50:03;97453.91;;;7.03;100.00
55914;BME280;58179;48.776;9.124;2023-03-21T06:52:31;97447.72;;;7.09;100.00
55914;BME280;58179;48.776;9.124;2023-03-21T06:54:57;97446.16;;;7.19;100.00
55914;BME280;58179;48.776;9.124;2023-03-21T06:57:23;97446.16;;;7.31;100.00
55914;BME280;58179;48.776;9.124;2023-03-21T06:59:49;97444.56;;;7.42;100.00
55914;BME280;58179;48.776;9.124;2023-03-21T07:02:16;97447.88;;;7.60;100.00
55914;BME280;58179;48.776;9.124;2023-03-21T07:04:42;97446.59;;;7.63;100.00
55914;BME280;58179;48.776;9.124;2023-03-21T07:07:08;97446.84;;;7.73;100.00
55914;BME280;58179;48.776;9.124;2023-03-21T07:09:34;97439.56;;;7.92;100.00
55914;BME280;58179;48.776;9.124;2023-03-21T07:12:00;97441.91;;;7.88;100.00
55914;BME280;58179;48.776;9.124;2023-03-21T07:14:26;97440.06;;;7.89;100.00
55914;BME280;58179;48.776;9.124;2023-03-21T07:16:52;97437.53;;;7.94;100.00
55914;BME280;58179;48.776;9.124;2023-03-21T07:19:19;97429.47;;;8.00;100.00
55914;BME280;58179;48.776;9.124;2023-03-21T07:21:45;97439.97;;;8.12;100.00
55914;BME280;58179;48.776;9.124;2023-03-21T07:24:11;97439.59;;;8.20;100.00
55914;BME280;58179;48.776;9.124;2023-03-21T07:26:37;97433.31;;;8.33;100.00
55914;BME280;58179;48.776;9.124;2023-03-21T07:29:03;97433.53;;;8.31;100.00
55914;BME280;58179;48.776;9.124;2023-03-21T07:31:29;97439.03;;;8.58;100.00
55914;BME280;58179;48.776;9.124;2023-03-21T07:33:55;97438.56;;;8.61;100.00
55914;BME280;58179;48.776;9.124;2023-03-21T07:36:22;97440.75;;;8.64;100.00
55914;BME280;58179;48.776;9.124;2023-03-21T07:38:48;97435.88;;;8.73;100.00
55914;BME280;58179;48.776;9.124;2023-03-21T07:41:14;97442.63;;;8.97;100.00
55914;BME280;58179;48.776;9.124;2023-03-21T07:43:40;97443.91;;;8.95;100.00
55914;BME280;58179;48.776;9.124;2023-03-21T07:46:06;97447.66;;;8.99;100.00
55914;BME280;58179;48.776;9.124;2023-03-21T07:48:32;97444.88;;;9.05;100.00
55914;BME280;58179;48.776;9.124;2023-03-21T07:50:58;97434.78;;;9.19;100.00
55914;BME280;58179;48.776;9.124;2023-03-21T07:53:26;97438.78;;;9.21;100.00
55914;BME280;58179;48.776;9.124;2023-03-21T07:55:53;97433.19;;;9.18;100.00
55914;BME280;58179;48.776;9.124;2023-03-21T07:58:21;97441.38;;;9.16;100.00
55914;BME280;58179;48.776;9.124;2023-03-21T08:00:47;97438.97;;;9.15;100.00
55914;BME280;58179;48.776;9.124;2023-03-21T08:03:13;97437.59;;;9.29;100.00
55914;BME280;58179;48.776;9.124;2023-03-21T08:05:39;97431.41;;;9.40;100.00
55914;BME280;58179;48.776;9.124;2023-03-21T08:08:06;97442.13;;;9.50;100.00
55914;BME280;58179;48.776;9.124;2023-03-21T08:10:34;97427.31;;;9.49;100.00
55914;BME280;58179;48.776;9.124;2023-03-21T08:13:00;97430.81;;;9.55;100.00
55914;BME280;58179;48.776;9.124;2023-03-21T08:15:26;97433.94;;;9.68;100.00
55914;BME280;58179;48.776;9.124;2023-03-21T08:17:52;97424.97;;;9.69;100.00
55914;BME280;58179;48.776;9.124;2023-03-21T08:20:21;97425.28;;;9.95;100.00
55914;BME280;58179;48.776;9.124;2023-03-21T08:22:48;97425.91;;;10.02;100.00
55914;BME280;58179;48.776;9.124;2023-03-21T08:25:16;97425.47;;;10.10;100.00
55914;BME280;58179;48.776;9.124;2023-03-21T08:27:45;97420.19;;;10.10;100.00
55914;BME280;58179;48.776;9.124;2023-03-21T08:30:15;97421.47;;;10.07;100.00
55914;BME280;58179;48.776;9.124;2023-03-21T08:32:41;97420.50;;;10.14;100.00
55914;BME280;58179;48.776;9.124;2023-03-21T08:35:10;97420.34;;;10.20;100.00
55914;BME280;58179;48.776;9.124;2023-03-21T08:37:37;97417.91;;;10.40;100.00
55914;BME280;58179;48.776;9.124;2023-03-21T08:40:05;97415.38;;;10.51;100.00
55914;BME280;58179;48.776;9.124;2023-03-21T08:42:33;97412.00;;;10.60;100.00
55914;BME280;58179;48.776;9.124;2023-03-21T08:45:01;97410.72;;;10.63;100.00
55914;BME280;58179;48.776;9.124;2023-03-21T08:47:27;97407.47;;;10.56;100.00
55914;BME280;58179;48.776;9.124;2023-03-21T08:49:53;97407.19;;;10.52;100.00
55914;BME280;58179;48.776;9.124;2023-03-21T08:52:20;97403.75;;;10.83;100.00
55914;BME280;58179;48.776;9.124;2023-03-21T08:54:46;97411.19;;;10.86;100.00
55914;BME280;58179;48.776;9.124;2023-03-21T08:57:13;97410.44;;;10.91;100.00
55914;BME280;58179;48.776;9.124;2023-03-21T08:59:39;97403.06;;;10.98;100.00
55914;BME280;58179;48.776;9.124;2023-03-21T09:02:07;97397.59;;;11.05;100.00
55914;BME280;58179;48.776;9.124;2023-03-21T09:04:33;97394.84;;;11.27;100.00
55914;BME280;58179;48.776;9.124;2023-03-21T09:06:59;97383.72;;;11.30;100.00
55914;BME280;58179;48.776;9.124;2023-03-21T09:09:28;97394.56;;;11.28;100.00
55914;BME280;58179;48.776;9.124;2023-03-21T09:11:54;97401.50;;;11.34;100.00
55914;BME280;58179;48.776;9.124;2023-03-21T09:14:20;97397.88;;;11.50;100.00
55914;BME280;58179;48.776;9.124;2023-03-21T09:16:46;97402.19;;;11.61;100.00
55914;BME280;58179;48.776;9.124;2023-03-21T09:19:13;97405.97;;;11.71;100.00
55914;BME280;58179;48.776;9.124;2023-03-21T09:21:39;97401.06;;;11.94;100.00
55914;BME280;58179;48.776;9.124;2023-03-21T09:24:06;97408.00;;;12.00;100.00
55914;BME280;58179;48.776;9.124;2023-03-21T09:26:32;97410.56;;;11.85;100.00
55914;BME280;58179;48.776;9.124;2023-03-21T09:28:59;97404.28;;;12.07;100.00
55914;BME280;58179;48.776;9.124;2023-03-21T09:31:26;97403.03;;;12.29;100.00
55914;BME280;58179;48.776;9.124;2023-03-21T09:33:53;97396.38;;;12.22;100.00
55914;BME280;58179;48.776;9.124;2023-03-21T09:36:21;97396.94;;;12.24;100.00
55914;BME280;58179;48.776;9.124;2023-03-21T09:38:51;97402.78;;;12.36;100.00
55914;BME280;58179;48.776;9.124;2023-03-21T09:41:34;97390.09;;;12.63;100.00
55914;BME280;58179;48.776;9.124;2023-03-21T09:44:19;97392.78;;;12.89;100.00
55914;BME280;58179;48.776;9.124;2023-03-21T09:46:53;97390.66;;;13.01;100.00
55914;BME280;58179;48.776;9.124;2023-03-21T09:49:23;97398.63;;;12.86;96.89
55914;BME280;58179;48.776;9.124;2023-03-21T09:51:59;97381.63;;;13.12;100.00
55914;BME280;58179;48.776;9.124;2023-03-21T09:54:31;97385.09;;;13.38;100.00
55914;BME280;58179;48.776;9.124;2023-03-21T09:57:04;97378.63;;;13.64;100.00
55914;BME280;58179;48.776;9.124;2023-03-21T09:59:35;97376.69;;;13.90;100.00
55914;BME280;58179;48.776;9.124;2023-03-21T10:02:29;97374.66;;;14.26;100.00
55914;BME280;58179;48.776;9.124;2023-03-21T10:04:58;97364.34;;;14.63;100.00
55914;BME280;58179;48.776;9.124;2023-03-21T10:07:26;97363.97;;;14.80;100.00
55914;BME280;58179;48.776;9.124;2023-03-21T10:09:56;97357.63;;;15.05;100.00
55914;BME280;58179;48.776;9.124;2023-03-21T10:12:22;97356.59;;;15.30;100.00
55914;BME280;58179;48.776;9.124;2023-03-21T10:14:52;97359.88;;;15.74;100.00
55914;BME280;58179;48.776;9.124;2023-03-21T10:17:28;97354.06;;;16.34;100.00
55914;BME280;58179;48.776;9.124;2023-03-21T10:20:10;97351.50;;;16.98;100.00
55914;BME280;58179;48.776;9.124;2023-03-21T10:22:40;97354.28;;;17.53;100.00
55914;BME280;58179;48.776;9.124;2023-03-21T10:25:12;97354.75;;;17.74;95.46
55914;BME280;58179;48.776;9.124;2023-03-21T10:27:39;97349.81;;;18.31;100.00
55914;BME280;58179;48.776;9.124;2023-03-21T10:30:10;97339.19;;;18.12;68.93
55914;BME280;58179;48.776;9.124;2023-03-21T10:32:44;97345.88;;;18.64;93.79
55914;BME280;58179;48.776;9.124;2023-03-21T10:35:12;97346.84;;;18.90;93.08
55914;BME280;58179;48.776;9.124;2023-03-21T10:37:40;97341.47;;;19.13;100.00
55914;BME280;58179;48.776;9.124;2023-03-21T10:40:12;97337.69;;;19.45;100.00
55914;BME280;58179;48.776;9.124;2023-03-21T10:42:40;97339.84;;;19.65;100.00
55914;BME280;58179;48.776;9.124;2023-03-21T10:45:15;97332.53;;;20.05;97.30
55914;BME280;58179;48.776;9.124;2023-03-21T10:47:41;97337.75;;;20.01;100.00
55914;BME280;58179;48.776;9.124;2023-03-21T10:50:12;97337.34;;;19.68;83.58
55914;BME280;58179;48.776;9.124;2023-03-21T10:52:46;97330.84;;;19.61;84.20
55914;BME280;58179;48.776;9.124;2023-03-21T10:55:21;97347.69;;;19.00;70.07
55914;BME280;58179;48.776;9.124;2023-03-21T10:57:55;97340.13;;;18.43;66.00
55914;BME280;58179;48.776;9.124;2023-03-21T11:00:27;97347.19;;;18.03;67.05
55914;BME280;58179;48.776;9.124;2023-03-21T11:02:54;97345.28;;;18.04;82.37
55914;BME280;58179;48.776;9.124;2023-03-21T11:05:25;97341.50;;;17.36;68.97
55914;BME280;58179;48.776;9.124;2023-03-21T11:08:03;97342.69;;;16.98;68.48
55914;BME280;58179;48.776;9.124;2023-03-21T11:10:34;97337.59;;;16.83;72.65
55914;BME280;58179;48.776;9.124;2023-03-21T11:13:05;97336.16;;;16.34;63.57
55914;BME280;58179;48.776;9.124;2023-03-21T11:15:41;97340.09;;;16.18;69.73
55914;BME280;58179;48.776;9.124;2023-03-21T11:18:16;97334.31;;;15.92;68.99
55914;BME280;58179;48.776;9.124;2023-03-21T11:20:50;97330.38;;;16.08;84.63
55914;BME280;58179;48.776;9.124;2023-03-21T11:23:18;97340.19;;;16.13;80.62
55914;BME280;58179;48.776;9.124;2023-03-21T11:25:48;97325.63;;;16.43;100.00
55914;BME280;58179;48.776;9.124;2023-03-21T11:28:17;97333.47;;;16.34;85.74
55914;BME280;58179;48.776;9.124;2023-03-21T11:30:55;97328.63;;;15.99;68.94
55914;BME280;58179;48.776;9.124;2023-03-21T11:33:25;97328.81;;;15.83;75.08
55914;BME280;58179;48.776;9.124;2023-03-21T11:36:03;97323.34;;;15.46;69.10
55914;BME280;58179;48.776;9.124;2023-03-21T11:38:36;97324.66;;;15.48;81.72
55914;BME280;58179;48.776;9.124;2023-03-21T11:41:04;97320.13;;;15.25;71.94
55914;BME280;58179;48.776;9.124;2023-03-21T11:43:33;97316.81;;;15.04;68.52
55914;BME280;58179;48.776;9.124;2023-03-21T11:46:05;97314.59;;;14.88;69.52
55914;BME280;58179;48.776;9.124;2023-03-21T11:48:37;97312.91;;;14.97;83.78
55914;BME280;58179;48.776;9.124;2023-03-21T11:51:11;97305.28;;;15.14;90.30
55914;BME280;58179;48.776;9.124;2023-03-21T11:53:57;97303.69;;;15.13;88.16
55914;BME280;58179;48.776;9.124;2023-03-21T11:56:30;97305.22;;;15.19;86.88
55914;BME280;58179;48.776;9.124;2023-03-21T11:59:27;97290.63;;;15.11;81.66
55914;BME280;58179;48.776;9.124;2023-03-21T12:02:40;97296.91;;;15.26;99.52
55914;BME280;58179;48.776;9.124;2023-03-21T12:05:18;97288.03;;;15.30;100.00
55914;BME280;58179;48.776;9.124;2023-03-21T12:07:53;97293.03;;;15.37;100.00
55914;BME280;58179;48.776;9.124;2023-03-21T12:10:31;97287.00;;;15.55;100.00
55914;BME280;58179;48.776;9.124;2023-03-21T12:13:15;97279.53;;;15.76;100.00
55914;BME280;58179;48.776;9.124;2023-03-21T12:15:53;97286.56;;;15.91;100.00
55914;BME280;58179;48.776;9.124;2023-03-21T12:18:50;97284.25;;;16.03;100.00
55914;BME280;58179;48.776;9.124;2023-03-21T12:21:30;97286.28;;;15.92;95.19
55914;BME280;58179;48.776;9.124;2023-03-21T12:24:05;97279.69;;;15.84;100.00
55914;BME280;58179;48.776;9.124;2023-03-21T12:26:42;97263.28;;;15.54;84.46
55914;BME280;58179;48.776;9.124;2023-03-21T12:29:33;97271.34;;;15.43;74.44
55914;BME280;58179;48.776;9.124;2023-03-21T12:32:13;97266.47;;;15.50;91.47
55914;BME280;58179;48.776;9.124;2023-03-21T12:35:05;97258.94;;;15.58;100.00
55914;BME280;58179;48.776;9.124;2023-03-21T12:37:43;97257.50;;;15.65;95.05
55914;BME280;58179;48.776;9.124;2023-03-21T12:40:27;97259.34;;;15.88;100.00
55914;BME280;58179;48.776;9.124;2023-03-21T12:43:28;97241.59;;;15.98;100.00
55914;BME280;58179;48.776;9.124;2023-03-21T12:46:00;97242.22;;;16.27;100.00
55914;BME280;58179;48.776;9.124;2023-03-21T12:48:37;97239.75;;;16.49;100.00
55914;BME280;58179;48.776;9.124;2023-03-21T12:51:10;97231.13;;;16.85;100.00
55914;BME280;58179;48.776;9.124;2023-03-21T12:53:52;97235.34;;;17.18;100.00
55914;BME280;58179;48.776;9.124;2023-03-21T12:56:26;97234.75;;;17.35;100.00
55914;BME280;58179;48.776;9.124;2023-03-21T12:59:01;97230.50;;;17.61;100.00
55914;BME280;58179;48.776;9.124;2023-03-21T13:01:29;97229.63;;;18.02;100.00
55914;BME280;58179;48.776;9.124;2023-03-21T13:07:00;97228.19;;;18.63;100.00
55914;BME280;58179;48.776;9.124;2023-03-21T13:09:33;97221.47;;;18.74;100.00
55914;BME280;58179;48.776;9.124;2023-03-21T13:12:10;97214.84;;;18.71;100.00
55914;BME280;58179;48.776;9.124;2023-03-21T13:14:51;97214.66;;;18.68;100.00
55914;BME280;58179;48.776;9.124;2023-03-21T13:17:26;97221.38;;;18.57;100.00
55914;BME280;58179;48.776;9.124;2023-03-21T13:20:00;97222.88;;;18.49;100.00
55914;BME280;58179;48.776;9.124;2023-03-21T13:22:31;97215.59;;;18.41;100.00
55914;BME280;58179;48.776;9.124;2023-03-21T13:25:01;97210.75;;;18.29;100.00